createdAt,value
2017-11-10T00:01:33.095Z,6.60
2017-11-10T00:04:00.653Z,6.60
2017-11-10T00:06:28.924Z,6.60
2017-11-10T00:08:57.187Z,6.60
2017-11-10T00:11:24.744Z,6.50
2017-11-10T00:13:52.249Z,6.60
2017-11-10T00:16:19.761Z,6.60
2017-11-10T00:18:47.325Z,6.50
2017-11-10T00:21:14.836Z,6.40
2017-11-10T00:23:42.356Z,6.40
2017-11-10T00:26:10.244Z,6.30
2017-11-10T00:28:37.752Z,6.20
2017-11-10T00:31:05.827Z,6.20
2017-11-10T00:33:33.372Z,6.20
2017-11-10T00:36:00.898Z,6.10
2017-11-10T00:38:28.417Z,6.10
2017-11-10T00:40:55.972Z,6.10
2017-11-10T00:43:24.252Z,6.10
2017-11-10T00:45:51.770Z,6.10
2017-11-10T00:48:19.365Z,6.10
2017-11-10T00:50:46.954Z,6.10
2017-11-10T00:53:14.468Z,6.10
2017-11-10T00:55:42.033Z,6.20
2017-11-10T00:58:09.540Z,6.20
2017-11-10T01:00:37.044Z,6.20
2017-11-10T01:03:04.603Z,6.20
2017-11-10T01:05:32.112Z,6.20
2017-11-10T01:08:00.516Z,6.30
2017-11-10T01:10:28.092Z,6.40
2017-11-10T01:12:55.605Z,6.40
2017-11-10T01:15:23.114Z,6.40
2017-11-10T01:17:50.752Z,6.50
2017-11-10T01:20:18.264Z,6.60
2017-11-10T01:22:45.776Z,6.50
2017-11-10T01:25:13.351Z,6.50
2017-11-10T01:27:40.868Z,6.50
2017-11-10T01:30:08.377Z,6.50
2017-11-10T01:32:36.049Z,6.60
2017-11-10T01:35:03.560Z,6.70
2017-11-10T01:37:31.069Z,6.70
2017-11-10T01:39:58.632Z,6.70
2017-11-10T01:42:26.141Z,6.80
2017-11-10T01:44:53.656Z,6.80
2017-11-10T01:47:21.216Z,6.70
2017-11-10T01:49:54.308Z,6.70
2017-11-10T01:52:21.928Z,6.70
2017-11-10T01:54:49.436Z,6.80
2017-11-10T01:57:16.958Z,6.80
2017-11-10T01:59:45.804Z,6.80
2017-11-10T02:02:13.328Z,6.80
2017-11-10T02:04:41.640Z,6.70
2017-11-10T02:07:09.188Z,6.70
2017-11-10T02:09:36.705Z,6.60
2017-11-10T02:12:04.224Z,6.60
2017-11-10T02:14:31.800Z,6.50
2017-11-10T02:16:59.308Z,6.40
2017-11-10T02:19:26.824Z,6.20
2017-11-10T02:21:54.377Z,6.00
2017-11-10T02:24:22.141Z,5.80
2017-11-10T02:26:49.657Z,5.70
2017-11-10T02:29:23.775Z,5.60
2017-11-10T02:31:51.313Z,5.40
2017-11-10T02:34:18.847Z,5.10
2017-11-10T02:36:46.412Z,5.00
2017-11-10T02:39:13.923Z,4.90
2017-11-10T02:41:41.433Z,4.80
2017-11-10T02:44:09.005Z,4.80
2017-11-10T02:46:36.533Z,4.60
2017-11-10T02:49:04.053Z,4.60
2017-11-10T02:51:32.240Z,4.70
2017-11-10T02:53:59.768Z,4.90
2017-11-10T02:56:29.008Z,5.10
2017-11-10T02:58:56.708Z,5.10
2017-11-10T03:01:24.227Z,5.20
2017-11-10T03:03:51.736Z,5.30
2017-11-10T03:06:19.541Z,5.30
2017-11-10T03:08:47.812Z,5.60
2017-11-10T03:11:16.803Z,5.60
2017-11-10T03:13:44.537Z,5.60
2017-11-10T03:16:13.540Z,5.70
2017-11-10T03:18:41.318Z,5.70
2017-11-10T03:21:08.921Z,5.60
2017-11-10T03:23:36.736Z,5.70
2017-11-10T03:26:04.279Z,5.70
2017-11-10T03:28:31.813Z,5.80
2017-11-10T03:30:59.326Z,5.80
2017-11-10T03:33:26.840Z,5.80
2017-11-10T03:35:54.472Z,5.70
2017-11-10T03:38:21.980Z,5.70
2017-11-10T03:40:49.488Z,5.70
2017-11-10T03:43:17.033Z,5.70
2017-11-10T03:45:44.300Z,5.70
2017-11-10T03:48:11.812Z,5.70
2017-11-10T03:50:39.393Z,5.80
2017-11-10T03:53:06.907Z,5.90
2017-11-10T03:55:34.417Z,5.90
2017-11-10T03:58:01.998Z,5.90
2017-11-10T04:00:29.504Z,5.90
2017-11-10T04:02:57.012Z,6.00
2017-11-10T04:05:24.649Z,6.00
2017-11-10T04:07:52.147Z,6.00
2017-11-10T04:10:19.652Z,6.00
2017-11-10T04:12:47.228Z,6.10
2017-11-10T04:15:14.736Z,6.00
2017-11-10T04:17:42.245Z,6.00
2017-11-10T04:20:09.815Z,5.90
2017-11-10T04:22:37.340Z,5.90
2017-11-10T04:25:05.399Z,5.90
2017-11-10T04:27:32.969Z,6.00
2017-11-10T04:30:01.249Z,5.80
2017-11-10T04:32:29.535Z,5.80
2017-11-10T04:34:57.839Z,5.80
2017-11-10T04:37:25.353Z,5.70
2017-11-10T04:39:53.020Z,5.70
2017-11-10T04:42:20.710Z,5.80
2017-11-10T04:44:48.237Z,5.80
2017-11-10T04:47:15.748Z,5.90
2017-11-10T04:49:43.373Z,5.90
2017-11-10T04:52:11.668Z,5.90
2017-11-10T04:54:39.169Z,5.90
2017-11-10T04:57:06.728Z,5.90
2017-11-10T04:59:34.236Z,5.80
2017-11-10T05:02:01.748Z,5.90
2017-11-10T05:04:29.296Z,5.90
2017-11-10T05:06:56.573Z,6.00
2017-11-10T05:09:24.081Z,6.00
2017-11-10T05:11:51.692Z,6.00
2017-11-10T05:14:19.205Z,6.00
2017-11-10T05:16:46.718Z,6.00
2017-11-10T05:19:14.282Z,5.90
2017-11-10T05:21:41.788Z,6.00
2017-11-10T05:24:09.307Z,5.90
2017-11-10T05:26:36.868Z,5.90
2017-11-10T05:29:05.153Z,6.00
2017-11-10T05:31:33.544Z,6.10
2017-11-10T05:34:01.132Z,6.10
2017-11-10T05:36:28.684Z,6.10
2017-11-10T05:38:56.200Z,6.10
2017-11-10T05:41:23.862Z,6.10
2017-11-10T05:43:51.368Z,6.20
2017-11-10T05:46:18.884Z,6.20
2017-11-10T05:48:46.460Z,6.20
2017-11-10T05:51:13.989Z,6.10
2017-11-10T05:53:41.507Z,6.10
2017-11-10T05:56:09.068Z,6.10
2017-11-10T05:58:36.644Z,6.10
2017-11-10T06:01:05.012Z,6.10
2017-11-10T06:03:32.592Z,6.10
2017-11-10T06:06:00.632Z,6.10
2017-11-10T06:08:28.157Z,6.10
2017-11-10T06:10:56.136Z,6.20
2017-11-10T06:13:23.792Z,6.10
2017-11-10T06:15:51.381Z,6.10
2017-11-10T06:18:18.891Z,6.10
2017-11-10T06:20:46.485Z,6.20
2017-11-10T06:23:14.043Z,6.20
2017-11-10T06:25:41.567Z,6.20
2017-11-10T06:28:09.132Z,6.30
2017-11-10T06:30:37.419Z,6.20
2017-11-10T06:33:04.948Z,6.20
2017-11-10T06:35:32.566Z,6.20
2017-11-10T06:38:00.076Z,6.20
2017-11-10T06:40:27.580Z,6.30
2017-11-10T06:42:55.336Z,6.20
2017-11-10T06:45:22.899Z,6.20
2017-11-10T06:47:50.419Z,6.30
2017-11-10T06:50:17.993Z,6.20
2017-11-10T06:52:46.268Z,6.40
2017-11-10T06:55:14.564Z,6.30
2017-11-10T06:57:42.880Z,6.40
2017-11-10T07:00:10.397Z,6.40
2017-11-10T07:02:37.928Z,6.40
2017-11-10T07:05:06.216Z,6.40
2017-11-10T07:07:34.487Z,6.50
2017-11-10T07:10:02.764Z,6.60
2017-11-10T07:12:30.359Z,6.60
2017-11-10T07:14:57.884Z,6.70
2017-11-10T07:17:25.391Z,6.70
2017-11-10T07:19:52.940Z,6.80
2017-11-10T07:22:20.449Z,6.70
2017-11-10T07:24:47.948Z,6.70
2017-11-10T07:27:15.547Z,6.70
2017-11-10T07:29:43.053Z,6.80
2017-11-10T07:32:11.341Z,6.90
2017-11-10T07:34:38.921Z,6.90
2017-11-10T07:37:06.432Z,6.90
2017-11-10T07:39:33.937Z,6.90
2017-11-10T07:42:01.507Z,7.00
2017-11-10T07:44:29.014Z,7.20
2017-11-10T07:46:56.528Z,7.10
2017-11-10T07:49:24.086Z,7.10
2017-11-10T07:51:51.612Z,7.20
2017-11-10T07:54:19.122Z,7.20
2017-11-10T07:56:46.687Z,7.20
2017-11-10T07:59:14.213Z,7.20
2017-11-10T08:01:41.720Z,7.10
2017-11-10T08:04:09.434Z,7.20
2017-11-10T08:06:36.940Z,7.30
2017-11-10T08:09:04.444Z,7.20
2017-11-10T08:11:32.007Z,7.30
2017-11-10T08:13:59.512Z,7.30
2017-11-10T08:16:27.025Z,7.30
2017-11-10T08:18:54.583Z,7.40
2017-11-10T08:21:22.090Z,7.40
2017-11-10T08:23:50.377Z,7.60
2017-11-10T08:26:18.685Z,7.70
2017-11-10T08:28:46.199Z,7.70
2017-11-10T08:31:13.709Z,7.80
2017-11-10T08:33:41.292Z,7.80
2017-11-10T08:36:08.816Z,7.80
2017-11-10T08:38:36.324Z,7.80
2017-11-10T08:41:03.872Z,7.50
2017-11-10T08:43:31.405Z,7.40
2017-11-10T08:45:58.920Z,7.40
2017-11-10T08:48:26.469Z,7.30
2017-11-10T08:50:53.986Z,7.40
2017-11-10T08:53:21.596Z,7.20
2017-11-10T08:55:50.643Z,7.20
2017-11-10T08:58:18.168Z,7.30
2017-11-10T09:00:45.674Z,7.00
2017-11-10T09:03:13.240Z,6.90
2017-11-10T09:05:40.789Z,6.90
2017-11-10T09:08:08.300Z,6.90
2017-11-10T09:10:35.848Z,7.00
2017-11-10T09:13:03.363Z,7.00
2017-11-10T09:15:30.878Z,7.00
2017-11-10T09:17:58.522Z,7.00
2017-11-10T09:20:26.332Z,7.00
2017-11-10T09:22:53.852Z,7.20
2017-11-10T09:25:23.136Z,7.00
2017-11-10T09:27:53.125Z,7.00
2017-11-10T09:30:23.264Z,7.10
2017-11-10T09:32:53.421Z,7.10
2017-11-10T09:48:55.857Z,6.80
2017-11-10T09:51:28.928Z,6.80
2017-11-10T09:54:02.152Z,6.90
2017-11-10T10:10:16.325Z,7.10
2017-11-10T10:12:44.289Z,7.30
2017-11-10T10:15:12.268Z,7.30
2017-11-10T10:17:54.684Z,7.30
2017-11-10T10:20:42.537Z,7.40
2017-11-10T10:23:10.090Z,7.60
2017-11-10T10:25:37.592Z,7.80
2017-11-10T10:28:05.093Z,7.80
2017-11-10T10:30:32.671Z,7.90
2017-11-10T10:33:00.184Z,7.80
2017-11-10T10:35:27.692Z,8.00
2017-11-10T10:37:55.243Z,8.20
2017-11-10T10:40:22.791Z,8.30
2017-11-10T10:42:50.308Z,8.10
2017-11-10T10:45:17.848Z,8.20
2017-11-10T10:47:45.353Z,8.20
2017-11-10T10:50:12.885Z,8.00
2017-11-10T10:52:40.461Z,7.90
2017-11-10T10:55:07.973Z,7.80
2017-11-10T10:57:35.487Z,7.70
2017-11-10T11:00:03.049Z,7.60
2017-11-10T11:02:30.569Z,7.50
2017-11-10T11:04:58.089Z,7.40
2017-11-10T11:07:25.655Z,7.30
2017-11-10T11:09:53.168Z,7.30
2017-11-10T11:12:20.677Z,7.20
2017-11-10T11:14:48.696Z,7.10
2017-11-10T11:17:16.972Z,6.90
2017-11-10T11:19:45.245Z,6.70
2017-11-10T11:22:13.353Z,6.60
2017-11-10T11:24:41.636Z,6.60
2017-11-10T11:27:09.926Z,6.60
2017-11-10T11:29:37.483Z,6.60
2017-11-10T11:32:04.996Z,6.60
2017-11-10T11:34:33.276Z,6.30
2017-11-10T11:37:00.875Z,6.30
2017-11-10T11:39:28.380Z,6.20
2017-11-10T11:41:55.888Z,6.20
2017-11-10T11:44:23.436Z,6.20
2017-11-10T11:46:50.958Z,6.20
2017-11-10T11:49:18.461Z,6.20
2017-11-10T11:51:46.011Z,6.20
2017-11-10T11:54:13.545Z,6.30
2017-11-10T11:56:41.820Z,6.20
2017-11-10T11:59:10.885Z,6.20
2017-11-10T12:01:38.392Z,6.20
2017-11-10T12:04:05.909Z,6.20
2017-11-10T12:06:33.492Z,6.20
2017-11-10T12:09:01.760Z,6.20
2017-11-10T12:11:30.055Z,6.20
2017-11-10T12:13:57.626Z,6.10
2017-11-10T12:16:25.152Z,6.10
2017-11-10T12:18:53.557Z,6.10
2017-11-10T12:21:21.128Z,6.10
2017-11-10T12:23:48.652Z,6.20
2017-11-10T12:26:16.161Z,6.20
2017-11-10T12:28:43.740Z,6.20
2017-11-10T12:31:11.252Z,6.30
2017-11-10T12:33:38.771Z,6.30
2017-11-10T12:36:06.345Z,6.20
2017-11-10T12:38:33.862Z,6.20
2017-11-10T12:41:01.373Z,6.20
2017-11-10T12:43:28.908Z,6.20
2017-11-10T12:45:56.429Z,6.20
2017-11-10T12:48:23.932Z,6.30
2017-11-10T12:50:51.492Z,6.40
2017-11-10T12:53:19.030Z,6.50
2017-11-10T12:55:46.535Z,6.50
2017-11-10T12:58:15.162Z,6.50
2017-11-10T13:00:42.683Z,6.50
2017-11-10T13:03:10.200Z,6.50
2017-11-10T13:05:38.388Z,6.50
2017-11-10T13:08:05.901Z,6.40
2017-11-10T13:10:34.088Z,6.40
2017-11-10T13:13:02.361Z,6.50
2017-11-10T13:15:29.930Z,6.40
2017-11-10T13:17:57.436Z,6.50
2017-11-10T13:20:24.983Z,6.50
2017-11-10T13:22:52.493Z,6.60
2017-11-10T13:25:20.009Z,6.50
2017-11-10T13:27:47.581Z,6.50
2017-11-10T13:30:15.094Z,6.60
2017-11-10T13:32:42.609Z,6.60
2017-11-10T13:35:10.502Z,6.60
2017-11-10T13:37:38.034Z,6.50
2017-11-10T13:40:05.585Z,6.40
2017-11-10T13:42:33.162Z,6.40
2017-11-10T13:45:00.680Z,6.40
2017-11-10T13:47:28.192Z,6.40
2017-11-10T13:49:55.736Z,6.40
2017-11-10T13:52:23.240Z,6.40
2017-11-10T13:54:50.769Z,6.40
2017-11-10T13:57:18.328Z,6.30
2017-11-10T13:59:45.845Z,6.30
2017-11-10T14:02:13.376Z,6.30
2017-11-10T14:04:40.909Z,6.30
2017-11-10T14:07:08.424Z,6.30
2017-11-10T14:09:35.936Z,6.20
2017-11-10T14:12:03.573Z,6.20
2017-11-10T14:14:31.098Z,6.30
2017-11-10T14:16:59.376Z,6.20
2017-11-10T14:19:27.681Z,6.10
2017-11-10T14:21:55.196Z,6.20
2017-11-10T14:24:22.717Z,6.10
2017-11-10T14:26:50.252Z,6.10
2017-11-10T14:29:17.785Z,6.10
2017-11-10T14:31:45.720Z,6.10
2017-11-10T14:34:13.224Z,6.10
2017-11-10T14:36:41.492Z,6.10
2017-11-10T14:39:09.800Z,6.10
2017-11-10T14:41:37.312Z,6.10
2017-11-10T14:44:04.836Z,6.10
2017-11-10T14:46:32.396Z,6.10
2017-11-10T14:48:59.916Z,6.10
2017-11-10T14:51:27.455Z,6.10
2017-11-10T14:53:55.013Z,6.10
2017-11-10T14:56:22.552Z,6.20
2017-11-10T14:58:50.053Z,6.20
2017-11-10T15:01:17.611Z,6.20
2017-11-10T15:03:45.121Z,6.20
2017-11-10T15:06:12.644Z,6.30
2017-11-10T15:08:40.208Z,6.30
2017-11-10T15:11:07.729Z,6.30
2017-11-10T15:13:35.248Z,6.30
2017-11-10T15:16:02.857Z,6.40
2017-11-10T15:18:31.132Z,6.40
2017-11-10T15:20:58.648Z,6.40
2017-11-10T15:23:26.229Z,6.40
2017-11-10T15:25:53.740Z,6.40
2017-11-10T15:28:21.257Z,6.40
2017-11-10T15:30:48.817Z,6.40
2017-11-10T15:33:16.334Z,6.50
2017-11-10T15:35:43.840Z,6.50
2017-11-10T15:38:11.513Z,6.50
2017-11-10T15:40:39.029Z,6.50
2017-11-10T15:43:08.664Z,6.40
2017-11-10T15:45:36.241Z,6.40
2017-11-10T15:48:04.521Z,6.50
2017-11-10T15:50:32.845Z,6.50
2017-11-10T15:53:00.416Z,6.50
2017-11-10T15:55:27.920Z,6.40
2017-11-10T15:57:55.437Z,6.40
2017-11-10T16:00:23.429Z,6.40
2017-11-10T16:02:50.954Z,6.40
2017-11-10T16:05:18.464Z,6.40
2017-11-10T16:07:46.060Z,6.40
2017-11-10T16:10:13.625Z,6.40
2017-11-10T16:12:40.720Z,6.40
2017-11-10T16:15:09.064Z,6.50
2017-11-10T16:17:36.589Z,6.50
2017-11-10T16:20:04.116Z,6.50
2017-11-10T16:22:32.443Z,6.50
2017-11-10T16:24:59.976Z,6.50
2017-11-10T16:27:27.515Z,6.50
2017-11-10T16:29:55.068Z,6.40
2017-11-10T16:32:22.580Z,6.50
2017-11-10T16:34:50.089Z,6.50
2017-11-10T16:37:17.620Z,6.40
2017-11-10T16:39:45.120Z,6.30
2017-11-10T16:42:12.629Z,6.40
2017-11-10T16:44:40.177Z,6.40
2017-11-10T16:47:07.696Z,6.30
2017-11-10T16:49:35.199Z,6.30
2017-11-10T16:52:02.764Z,6.30
2017-11-10T16:54:30.281Z,6.30
2017-11-10T16:56:57.787Z,6.30
2017-11-10T16:59:25.369Z,6.30
2017-11-10T17:01:52.897Z,6.40
2017-11-10T17:04:20.409Z,6.30
2017-11-10T17:06:47.992Z,6.30
2017-11-10T17:09:15.572Z,6.40
2017-11-10T17:11:43.087Z,6.40
2017-11-10T17:14:10.644Z,6.50
2017-11-10T17:16:38.912Z,6.60
2017-11-10T17:19:07.193Z,6.50
2017-11-10T17:21:35.583Z,6.60
2017-11-10T17:24:03.478Z,6.50
2017-11-10T17:26:30.993Z,6.60
2017-11-10T17:28:59.320Z,6.50
2017-11-10T17:31:26.837Z,6.50
2017-11-10T17:33:54.360Z,6.60
2017-11-10T17:36:22.696Z,6.50
2017-11-10T17:38:50.213Z,6.50
2017-11-10T17:41:17.739Z,6.50
2017-11-10T17:43:45.312Z,6.50
2017-11-10T17:46:13.072Z,6.50
2017-11-10T17:48:41.093Z,6.50
2017-11-10T17:51:08.651Z,6.60
2017-11-10T17:53:36.156Z,6.60
2017-11-10T17:56:03.665Z,6.50
2017-11-10T17:58:31.224Z,6.60
2017-11-10T18:00:59.496Z,6.60
2017-11-10T18:03:27.782Z,6.70
2017-11-10T18:05:56.776Z,6.70
2017-11-10T18:08:24.324Z,6.70
2017-11-10T18:10:52.593Z,6.60
2017-11-10T18:13:20.896Z,6.60
2017-11-10T18:15:49.190Z,6.70
2017-11-10T18:18:16.716Z,6.70
2017-11-10T18:20:44.267Z,6.60
2017-11-10T18:23:11.763Z,6.60
2017-11-10T18:25:39.268Z,6.60
2017-11-10T18:28:06.920Z,6.70
2017-11-10T18:30:34.436Z,6.60
2017-11-10T18:33:01.941Z,6.60
2017-11-10T18:35:29.489Z,6.60
2017-11-10T18:37:57.007Z,6.60
2017-11-10T18:40:24.580Z,6.60
2017-11-10T18:42:52.138Z,6.60
2017-11-10T18:45:20.163Z,6.60
2017-11-10T18:47:47.681Z,6.70
2017-11-10T18:50:15.245Z,6.70
2017-11-10T18:52:42.749Z,6.60
2017-11-10T18:55:16.072Z,6.60
2017-11-10T18:57:43.616Z,6.60
2017-11-10T19:00:11.454Z,6.60
2017-11-10T19:02:39.116Z,6.70
2017-11-10T19:05:06.620Z,6.70
2017-11-10T19:07:34.125Z,6.70
2017-11-10T19:10:02.283Z,6.60
2017-11-10T19:12:29.785Z,6.60
2017-11-10T19:14:57.293Z,6.70
2017-11-10T19:17:24.837Z,6.70
2017-11-10T19:19:52.336Z,6.70
2017-11-10T19:22:19.869Z,6.70
2017-11-10T19:24:47.409Z,6.80
2017-11-10T19:27:14.923Z,6.80
2017-11-10T19:29:42.438Z,6.80
2017-11-10T19:32:10.554Z,6.80
2017-11-10T19:34:38.173Z,6.80
2017-11-10T19:37:05.676Z,6.90
2017-11-10T19:39:33.330Z,6.90
2017-11-10T19:42:00.836Z,6.90
2017-11-10T19:44:28.343Z,6.80
2017-11-10T19:46:55.900Z,6.80
2017-11-10T19:49:23.764Z,6.80
2017-11-10T19:51:51.269Z,6.80
2017-11-10T19:54:19.024Z,6.80
2017-11-10T19:56:46.546Z,6.90
2017-11-10T19:59:14.052Z,6.90
2017-11-10T20:01:41.703Z,7.00
2017-11-10T20:04:09.204Z,7.00
2017-11-10T20:06:36.716Z,7.00
2017-11-10T20:09:04.277Z,7.00
2017-11-10T20:11:31.789Z,7.00
2017-11-10T20:13:59.296Z,7.00
2017-11-10T20:16:26.856Z,7.00
2017-11-10T20:18:55.131Z,6.90
2017-11-10T20:21:23.404Z,6.90
2017-11-10T20:23:51.735Z,6.80
2017-11-10T20:26:19.306Z,6.70
2017-11-10T20:28:46.808Z,6.70
2017-11-10T20:31:14.405Z,6.60
2017-11-10T20:33:41.921Z,6.60
2017-11-10T20:36:09.424Z,6.50
2017-11-10T20:38:37.080Z,6.50
2017-11-10T20:41:04.580Z,6.50
2017-11-10T20:43:32.085Z,6.40
2017-11-10T20:45:59.949Z,6.40
2017-11-10T20:48:27.451Z,6.40
2017-11-10T20:50:54.950Z,6.40
2017-11-10T20:53:22.508Z,6.40
2017-11-10T20:55:50.157Z,6.40
2017-11-10T20:58:17.672Z,6.40
2017-11-10T21:00:45.232Z,6.40
2017-11-10T21:03:12.739Z,6.40
2017-11-10T21:05:42.464Z,6.40
2017-11-10T21:08:10.065Z,6.40
2017-11-10T21:10:37.572Z,6.40
2017-11-10T21:13:05.077Z,6.40
2017-11-10T21:15:32.628Z,6.40
2017-11-10T21:18:00.131Z,6.40
2017-11-10T21:20:27.690Z,6.50
2017-11-10T21:22:55.308Z,6.40
2017-11-10T21:25:22.809Z,6.50
2017-11-10T21:27:50.318Z,6.50
2017-11-10T21:30:17.944Z,6.50
2017-11-10T21:32:46.932Z,6.50
2017-11-10T21:35:14.440Z,6.50
2017-11-10T21:37:41.989Z,6.60
2017-11-10T21:40:09.661Z,6.60
2017-11-10T21:42:37.191Z,6.60
2017-11-10T21:45:04.779Z,6.60
2017-11-10T21:47:32.488Z,6.60
2017-11-10T21:50:00.008Z,6.60
2017-11-10T21:52:27.580Z,6.60
2017-11-10T21:54:55.096Z,6.60
2017-11-10T21:57:22.604Z,6.70
2017-11-10T21:59:50.173Z,6.60
2017-11-10T22:02:17.677Z,6.70
2017-11-10T22:04:45.184Z,6.70
2017-11-10T22:07:13.192Z,6.70
2017-11-10T22:09:40.872Z,6.70
2017-11-10T22:12:08.553Z,6.70
2017-11-10T22:14:36.076Z,6.80
2017-11-10T22:17:03.583Z,6.80
2017-11-10T22:19:31.169Z,6.80
2017-11-10T22:22:00.154Z,6.80
2017-11-10T22:24:27.658Z,6.80
2017-11-10T22:26:55.528Z,6.80
2017-11-10T22:29:23.039Z,6.80
2017-11-10T22:31:50.541Z,6.80
2017-11-10T22:34:18.108Z,6.90
2017-11-10T22:36:45.656Z,6.80
2017-11-10T22:39:13.240Z,6.80
2017-11-10T22:41:40.923Z,6.90
2017-11-10T22:44:09.192Z,6.80
2017-11-10T22:46:37.828Z,6.80
2017-11-10T22:49:05.341Z,6.80
2017-11-10T22:51:32.916Z,6.80
2017-11-10T22:54:00.457Z,6.80
2017-11-10T22:56:27.998Z,6.80
2017-11-10T22:58:55.516Z,6.80
2017-11-10T23:01:23.097Z,6.80
2017-11-10T23:03:55.181Z,6.80
2017-11-10T23:06:22.723Z,6.80
2017-11-10T23:08:50.280Z,6.80
2017-11-10T23:11:18.013Z,6.90
2017-11-10T23:13:45.519Z,6.80
2017-11-10T23:16:13.026Z,6.90
2017-11-10T23:18:40.592Z,6.90
2017-11-10T23:21:08.104Z,6.90
2017-11-10T23:23:35.654Z,6.80
2017-11-10T23:26:03.196Z,6.90
2017-11-10T23:28:30.696Z,6.90
2017-11-10T23:30:58.281Z,6.90
2017-11-10T23:33:25.784Z,6.90
2017-11-10T23:35:53.292Z,6.90
2017-11-10T23:38:21.528Z,6.90
2017-11-10T23:40:49.449Z,6.90
2017-11-10T23:43:16.964Z,6.90
2017-11-10T23:45:44.528Z,6.90
2017-11-10T23:48:12.053Z,6.90
2017-11-10T23:50:39.569Z,6.90
2017-11-10T23:53:07.148Z,6.90
2017-11-10T23:55:34.672Z,6.80
2017-11-10T23:58:02.177Z,6.80
